sensor_id;sensor_type;location;lat;lon;timestamp;temperature;humidity
12853;DHT22;6495;51.808;7.478;2022-10-31T00:01:29;15.80;99.90
12853;DHT22;6495;51.808;7.478;2022-10-31T00:03:59;15.80;99.90
12853;DHT22;6495;51.808;7.478;2022-10-31T00:06:27;15.80;99.90
12853;DHT22;6495;51.808;7.478;2022-10-31T00:08:57;15.80;99.90
12853;DHT22;6495;51.808;7.478;2022-10-31T00:11:28;15.80;99.90
12853;DHT22;6495;51.808;7.478;2022-10-31T00:13:57;15.80;99.90
12853;DHT22;6495;51.808;7.478;2022-10-31T00:16:26;15.80;99.90
12853;DHT22;6495;51.808;7.478;2022-10-31T00:18:56;15.80;99.90
12853;DHT22;6495;51.808;7.478;2022-10-31T00:21:26;15.80;99.90
12853;DHT22;6495;51.808;7.478;2022-10-31T00:23:54;15.80;99.90
12853;DHT22;6495;51.808;7.478;2022-10-31T00:26:22;15.80;99.90
12853;DHT22;6495;51.808;7.478;2022-10-31T00:28:52;15.80;99.90
12853;DHT22;6495;51.808;7.478;2022-10-31T00:31:20;15.80;99.90
12853;DHT22;6495;51.808;7.478;2022-10-31T00:33:48;15.80;99.90
12853;DHT22;6495;51.808;7.478;2022-10-31T00:36:18;15.70;99.90
12853;DHT22;6495;51.808;7.478;2022-10-31T00:38:47;15.70;99.90
12853;DHT22;6495;51.808;7.478;2022-10-31T00:41:17;15.70;99.90
12853;DHT22;6495;51.808;7.478;2022-10-31T00:43:45;15.70;99.90
12853;DHT22;6495;51.808;7.478;2022-10-31T00:46:14;15.70;99.90
12853;DHT22;6495;51.808;7.478;2022-10-31T00:48:43;15.70;99.90
12853;DHT22;6495;51.808;7.478;2022-10-31T00:51:11;15.70;99.90
12853;DHT22;6495;51.808;7.478;2022-10-31T00:53:39;15.70;99.90
12853;DHT22;6495;51.808;7.478;2022-10-31T00:56:07;15.70;99.90
12853;DHT22;6495;51.808;7.478;2022-10-31T00:58:35;15.70;99.90
12853;DHT22;6495;51.808;7.478;2022-10-31T01:01:03;15.60;99.90
12853;DHT22;6495;51.808;7.478;2022-10-31T01:03:33;15.60;99.90
12853;DHT22;6495;51.808;7.478;2022-10-31T01:06:04;15.60;99.90
12853;DHT22;6495;51.808;7.478;2022-10-31T01:08:34;15.60;99.90
12853;DHT22;6495;51.808;7.478;2022-10-31T01:11:06;15.60;99.90
12853;DHT22;6495;51.808;7.478;2022-10-31T01:13:37;15.50;99.90
12853;DHT22;6495;51.808;7.478;2022-10-31T01:16:07;15.50;99.90
12853;DHT22;6495;51.808;7.478;2022-10-31T01:18:38;15.50;99.90
12853;DHT22;6495;51.808;7.478;2022-10-31T01:21:08;15.50;99.90
12853;DHT22;6495;51.808;7.478;2022-10-31T01:23:38;15.50;99.90
12853;DHT22;6495;51.808;7.478;2022-10-31T01:26:09;15.40;99.90
12853;DHT22;6495;51.808;7.478;2022-10-31T01:28:42;15.50;99.90
12853;DHT22;6495;51.808;7.478;2022-10-31T01:31:12;15.50;99.90
12853;DHT22;6495;51.808;7.478;2022-10-31T01:33:42;15.50;99.90
12853;DHT22;6495;51.808;7.478;2022-10-31T01:36:16;15.50;99.90
12853;DHT22;6495;51.808;7.478;2022-10-31T01:38:45;15.50;99.90
12853;DHT22;6495;51.808;7.478;2022-10-31T01:41:16;15.40;99.90
12853;DHT22;6495;51.808;7.478;2022-10-31T01:43:48;15.40;99.90
12853;DHT22;6495;51.808;7.478;2022-10-31T01:46:22;15.40;99.90
12853;DHT22;6495;51.808;7.478;2022-10-31T01:48:55;15.30;99.90
12853;DHT22;6495;51.808;7.478;2022-10-31T01:51:27;15.30;99.90
12853;DHT22;6495;51.808;7.478;2022-10-31T01:54:00;15.30;99.90
12853;DHT22;6495;51.808;7.478;2022-10-31T01:56:31;15.30;99.90
12853;DHT22;6495;51.808;7.478;2022-10-31T01:59:08;15.20;99.90
12853;DHT22;6495;51.808;7.478;2022-10-31T02:01:38;15.20;99.90
12853;DHT22;6495;51.808;7.478;2022-10-31T02:04:08;15.20;99.90
12853;DHT22;6495;51.808;7.478;2022-10-31T02:06:41;15.20;99.90
12853;DHT22;6495;51.808;7.478;2022-10-31T02:09:15;15.20;99.90
12853;DHT22;6495;51.808;7.478;2022-10-31T02:11:45;15.10;99.90
12853;DHT22;6495;51.808;7.478;2022-10-31T02:14:13;15.10;99.90
12853;DHT22;6495;51.808;7.478;2022-10-31T02:16:41;15.10;99.90
12853;DHT22;6495;51.808;7.478;2022-10-31T02:19:15;15.10;99.90
12853;DHT22;6495;51.808;7.478;2022-10-31T02:21:53;15.10;99.90
12853;DHT22;6495;51.808;7.478;2022-10-31T02:24:43;15.10;99.90
12853;DHT22;6495;51.808;7.478;2022-10-31T02:27:22;15.10;99.90
12853;DHT22;6495;51.808;7.478;2022-10-31T02:30:12;15.00;99.90
12853;DHT22;6495;51.808;7.478;2022-10-31T02:33:01;15.00;99.90
12853;DHT22;6495;51.808;7.478;2022-10-31T02:35:44;15.00;99.90
12853;DHT22;6495;51.808;7.478;2022-10-31T02:38:33;15.00;99.90
12853;DHT22;6495;51.808;7.478;2022-10-31T02:41:21;14.90;99.90
12853;DHT22;6495;51.808;7.478;2022-10-31T02:44:02;14.90;99.90
12853;DHT22;6495;51.808;7.478;2022-10-31T02:46:39;14.90;99.90
12853;DHT22;6495;51.808;7.478;2022-10-31T02:49:19;14.80;99.90
12853;DHT22;6495;51.808;7.478;2022-10-31T02:51:53;14.80;99.90
12853;DHT22;6495;51.808;7.478;2022-10-31T02:54:24;14.80;99.90
12853;DHT22;6495;51.808;7.478;2022-10-31T02:56:57;14.80;99.90
12853;DHT22;6495;51.808;7.478;2022-10-31T02:59:28;14.70;99.90
12853;DHT22;6495;51.808;7.478;2022-10-31T03:02:38;14.70;99.90
12853;DHT22;6495;51.808;7.478;2022-10-31T03:05:41;14.70;99.90
12853;DHT22;6495;51.808;7.478;2022-10-31T03:08:23;14.60;99.90
12853;DHT22;6495;51.808;7.478;2022-10-31T03:10:58;14.60;99.90
12853;DHT22;6495;51.808;7.478;2022-10-31T03:13:33;14.60;99.90
12853;DHT22;6495;51.808;7.478;2022-10-31T03:16:08;14.60;99.90
12853;DHT22;6495;51.808;7.478;2022-10-31T03:18:45;14.50;99.90
12853;DHT22;6495;51.808;7.478;2022-10-31T03:21:21;14.50;99.90
12853;DHT22;6495;51.808;7.478;2022-10-31T03:23:53;14.50;99.90
12853;DHT22;6495;51.808;7.478;2022-10-31T03:26:25;14.40;99.90
12853;DHT22;6495;51.808;7.478;2022-10-31T03:28:57;14.40;99.90
12853;DHT22;6495;51.808;7.478;2022-10-31T03:31:41;14.40;99.90
12853;DHT22;6495;51.808;7.478;2022-10-31T03:34:15;14.30;99.90
12853;DHT22;6495;51.808;7.478;2022-10-31T03:36:50;14.30;99.90
12853;DHT22;6495;51.808;7.478;2022-10-31T03:39:22;14.30;99.90
12853;DHT22;6495;51.808;7.478;2022-10-31T03:41:54;14.30;99.90
12853;DHT22;6495;51.808;7.478;2022-10-31T03:44:27;14.20;99.90
12853;DHT22;6495;51.808;7.478;2022-10-31T03:46:57;14.20;99.90
12853;DHT22;6495;51.808;7.478;2022-10-31T03:49:25;14.20;99.90
12853;DHT22;6495;51.808;7.478;2022-10-31T03:52:00;14.20;99.90
12853;DHT22;6495;51.808;7.478;2022-10-31T03:54:42;14.20;99.90
12853;DHT22;6495;51.808;7.478;2022-10-31T03:57:17;14.10;99.90
12853;DHT22;6495;51.808;7.478;2022-10-31T03:59:53;14.10;99.90
12853;DHT22;6495;51.808;7.478;2022-10-31T04:02:27;14.10;99.90
12853;DHT22;6495;51.808;7.478;2022-10-31T04:04:58;14.10;99.90
12853;DHT22;6495;51.808;7.478;2022-10-31T04:07:32;14.10;99.90
12853;DHT22;6495;51.808;7.478;2022-10-31T04:10:07;14.10;99.90
12853;DHT22;6495;51.808;7.478;2022-10-31T04:12:39;14.00;99.90
12853;DHT22;6495;51.808;7.478;2022-10-31T04:15:10;14.00;99.90
12853;DHT22;6495;51.808;7.478;2022-10-31T04:17:41;14.00;99.90
12853;DHT22;6495;51.808;7.478;2022-10-31T04:20:15;14.00;99.90
12853;DHT22;6495;51.808;7.478;2022-10-31T04:22:45;13.90;99.90
12853;DHT22;6495;51.808;7.478;2022-10-31T04:25:13;13.90;99.90
12853;DHT22;6495;51.808;7.478;2022-10-31T04:27:41;13.90;99.90
12853;DHT22;6495;51.808;7.478;2022-10-31T04:30:09;13.90;99.90
12853;DHT22;6495;51.808;7.478;2022-10-31T04:32:38;13.90;99.90
12853;DHT22;6495;51.808;7.478;2022-10-31T04:35:06;13.90;99.90
12853;DHT22;6495;51.808;7.478;2022-10-31T04:37:34;13.80;99.90
12853;DHT22;6495;51.808;7.478;2022-10-31T04:40:04;13.80;99.90
12853;DHT22;6495;51.808;7.478;2022-10-31T04:42:33;13.80;99.90
12853;DHT22;6495;51.808;7.478;2022-10-31T04:45:01;13.80;99.90
12853;DHT22;6495;51.808;7.478;2022-10-31T04:47:30;13.80;99.90
12853;DHT22;6495;51.808;7.478;2022-10-31T04:49:59;13.70;99.90
12853;DHT22;6495;51.808;7.478;2022-10-31T04:52:28;13.70;99.90
12853;DHT22;6495;51.808;7.478;2022-10-31T04:54:55;13.70;99.90
12853;DHT22;6495;51.808;7.478;2022-10-31T04:57:25;13.60;99.90
12853;DHT22;6495;51.808;7.478;2022-10-31T04:59:53;13.60;99.90
12853;DHT22;6495;51.808;7.478;2022-10-31T05:02:20;13.60;99.90
12853;DHT22;6495;51.808;7.478;2022-10-31T05:04:48;13.60;99.90
12853;DHT22;6495;51.808;7.478;2022-10-31T05:07:16;13.50;99.90
12853;DHT22;6495;51.808;7.478;2022-10-31T05:09:44;13.50;99.90
12853;DHT22;6495;51.808;7.478;2022-10-31T05:12:12;13.50;99.90
12853;DHT22;6495;51.808;7.478;2022-10-31T05:14:41;13.40;99.90
12853;DHT22;6495;51.808;7.478;2022-10-31T05:17:14;13.40;99.90
12853;DHT22;6495;51.808;7.478;2022-10-31T05:19:42;13.40;99.90
12853;DHT22;6495;51.808;7.478;2022-10-31T05:22:09;13.40;99.90
12853;DHT22;6495;51.808;7.478;2022-10-31T05:24:37;13.30;99.90
12853;DHT22;6495;51.808;7.478;2022-10-31T05:27:05;13.30;99.90
12853;DHT22;6495;51.808;7.478;2022-10-31T05:29:33;13.30;99.90
12853;DHT22;6495;51.808;7.478;2022-10-31T05:32:03;13.20;99.90
12853;DHT22;6495;51.808;7.478;2022-10-31T05:34:31;13.20;99.90
12853;DHT22;6495;51.808;7.478;2022-10-31T05:36:59;13.20;99.90
12853;DHT22;6495;51.808;7.478;2022-10-31T05:39:26;13.10;99.90
12853;DHT22;6495;51.808;7.478;2022-10-31T05:41:55;13.00;99.90
12853;DHT22;6495;51.808;7.478;2022-10-31T05:44:23;13.00;99.90
12853;DHT22;6495;51.808;7.478;2022-10-31T05:46:51;13.00;99.90
12853;DHT22;6495;51.808;7.478;2022-10-31T05:49:20;12.90;99.90
12853;DHT22;6495;51.808;7.478;2022-10-31T05:51:49;12.90;99.90
12853;DHT22;6495;51.808;7.478;2022-10-31T05:54:17;12.80;99.90
12853;DHT22;6495;51.808;7.478;2022-10-31T05:56:45;12.80;99.90
12853;DHT22;6495;51.808;7.478;2022-10-31T05:59:13;12.80;99.90
12853;DHT22;6495;51.808;7.478;2022-10-31T06:01:41;12.80;99.90
12853;DHT22;6495;51.808;7.478;2022-10-31T06:04:09;12.80;99.90
12853;DHT22;6495;51.808;7.478;2022-10-31T06:06:38;12.80;99.90
12853;DHT22;6495;51.808;7.478;2022-10-31T06:09:06;12.80;99.90
12853;DHT22;6495;51.808;7.478;2022-10-31T06:11:34;12.80;99.90
12853;DHT22;6495;51.808;7.478;2022-10-31T06:14:02;12.70;99.90
12853;DHT22;6495;51.808;7.478;2022-10-31T06:16:30;12.70;99.90
12853;DHT22;6495;51.808;7.478;2022-10-31T06:18:58;12.70;99.90
12853;DHT22;6495;51.808;7.478;2022-10-31T06:21:27;12.70;99.90
12853;DHT22;6495;51.808;7.478;2022-10-31T06:23:56;12.70;99.90
12853;DHT22;6495;51.808;7.478;2022-10-31T06:26:24;12.70;99.90
12853;DHT22;6495;51.808;7.478;2022-10-31T06:28:52;12.60;99.90
12853;DHT22;6495;51.808;7.478;2022-10-31T06:31:24;12.60;99.90
12853;DHT22;6495;51.808;7.478;2022-10-31T06:33:52;12.60;99.90
12853;DHT22;6495;51.808;7.478;2022-10-31T06:36:20;12.60;99.90
12853;DHT22;6495;51.808;7.478;2022-10-31T06:38:48;12.60;99.90
12853;DHT22;6495;51.808;7.478;2022-10-31T06:41:17;12.60;99.90
12853;DHT22;6495;51.808;7.478;2022-10-31T06:43:46;12.60;99.90
12853;DHT22;6495;51.808;7.478;2022-10-31T06:46:14;12.50;99.90
12853;DHT22;6495;51.808;7.478;2022-10-31T06:48:42;12.50;99.90
12853;DHT22;6495;51.808;7.478;2022-10-31T06:51:10;12.50;99.90
12853;DHT22;6495;51.808;7.478;2022-10-31T06:53:38;12.50;99.90
12853;DHT22;6495;51.808;7.478;2022-10-31T06:56:06;12.50;99.90
12853;DHT22;6495;51.808;7.478;2022-10-31T06:58:36;12.50;99.90
12853;DHT22;6495;51.808;7.478;2022-10-31T07:01:04;12.50;99.90
12853;DHT22;6495;51.808;7.478;2022-10-31T07:03:32;12.50;99.90
12853;DHT22;6495;51.808;7.478;2022-10-31T07:06:00;12.50;99.90
12853;DHT22;6495;51.808;7.478;2022-10-31T07:08:28;12.50;99.90
12853;DHT22;6495;51.808;7.478;2022-10-31T07:10:57;12.40;99.90
12853;DHT22;6495;51.808;7.478;2022-10-31T07:13:25;12.40;99.90
12853;DHT22;6495;51.808;7.478;2022-10-31T07:15:59;12.40;99.90
12853;DHT22;6495;51.808;7.478;2022-10-31T07:18:29;12.40;99.90
12853;DHT22;6495;51.808;7.478;2022-10-31T07:20:57;12.40;99.90
12853;DHT22;6495;51.808;7.478;2022-10-31T07:23:25;12.40;99.90
12853;DHT22;6495;51.808;7.478;2022-10-31T07:25:55;12.40;99.90
12853;DHT22;6495;51.808;7.478;2022-10-31T07:28:23;12.40;99.90
12853;DHT22;6495;51.808;7.478;2022-10-31T07:30:54;12.40;99.90
12853;DHT22;6495;51.808;7.478;2022-10-31T07:33:24;12.40;99.90
12853;DHT22;6495;51.808;7.478;2022-10-31T07:35:53;12.40;99.90
12853;DHT22;6495;51.808;7.478;2022-10-31T07:38:21;12.40;99.90
12853;DHT22;6495;51.808;7.478;2022-10-31T07:40:50;12.40;99.90
12853;DHT22;6495;51.808;7.478;2022-10-31T07:43:19;12.50;99.90
12853;DHT22;6495;51.808;7.478;2022-10-31T07:45:51;12.50;99.90
12853;DHT22;6495;51.808;7.478;2022-10-31T07:48:21;12.50;99.90
12853;DHT22;6495;51.808;7.478;2022-10-31T07:50:49;12.60;99.90
12853;DHT22;6495;51.808;7.478;2022-10-31T07:53:17;12.60;99.90
12853;DHT22;6495;51.808;7.478;2022-10-31T07:55:45;12.70;99.90
12853;DHT22;6495;51.808;7.478;2022-10-31T07:58:14;12.70;99.90
12853;DHT22;6495;51.808;7.478;2022-10-31T08:00:45;12.80;99.90
12853;DHT22;6495;51.808;7.478;2022-10-31T08:03:16;12.80;99.90
12853;DHT22;6495;51.808;7.478;2022-10-31T08:05:47;12.90;99.90
12853;DHT22;6495;51.808;7.478;2022-10-31T08:08:34;12.90;99.90
12853;DHT22;6495;51.808;7.478;2022-10-31T08:11:07;12.90;99.90
12853;DHT22;6495;51.808;7.478;2022-10-31T08:13:46;13.00;99.90
12853;DHT22;6495;51.808;7.478;2022-10-31T08:16:23;13.10;99.90
12853;DHT22;6495;51.808;7.478;2022-10-31T08:18:51;13.10;99.90
12853;DHT22;6495;51.808;7.478;2022-10-31T08:21:21;13.10;99.90
12853;DHT22;6495;51.808;7.478;2022-10-31T08:23:49;13.20;99.90
12853;DHT22;6495;51.808;7.478;2022-10-31T08:26:17;13.20;99.90
12853;DHT22;6495;51.808;7.478;2022-10-31T08:28:45;13.30;99.90
12853;DHT22;6495;51.808;7.478;2022-10-31T08:31:14;13.30;99.90
12853;DHT22;6495;51.808;7.478;2022-10-31T08:33:42;13.40;99.90
12853;DHT22;6495;51.808;7.478;2022-10-31T08:36:09;13.50;99.90
12853;DHT22;6495;51.808;7.478;2022-10-31T08:38:39;13.60;99.90
12853;DHT22;6495;51.808;7.478;2022-10-31T08:41:07;13.60;99.90
12853;DHT22;6495;51.808;7.478;2022-10-31T08:43:35;13.70;99.90
12853;DHT22;6495;51.808;7.478;2022-10-31T08:46:02;13.70;99.90
12853;DHT22;6495;51.808;7.478;2022-10-31T08:48:31;13.80;99.90
12853;DHT22;6495;51.808;7.478;2022-10-31T08:50:59;13.90;99.90
12853;DHT22;6495;51.808;7.478;2022-10-31T08:53:27;14.00;99.90
12853;DHT22;6495;51.808;7.478;2022-10-31T08:55:57;14.00;99.90
12853;DHT22;6495;51.808;7.478;2022-10-31T08:58:25;14.10;99.90
12853;DHT22;6495;51.808;7.478;2022-10-31T09:00:54;14.20;99.90
12853;DHT22;6495;51.808;7.478;2022-10-31T09:03:24;14.20;99.90
12853;DHT22;6495;51.808;7.478;2022-10-31T09:05:55;14.30;99.90
12853;DHT22;6495;51.808;7.478;2022-10-31T09:08:25;14.30;99.90
12853;DHT22;6495;51.808;7.478;2022-10-31T09:10:57;14.40;99.90
12853;DHT22;6495;51.808;7.478;2022-10-31T09:13:25;14.40;99.90
12853;DHT22;6495;51.808;7.478;2022-10-31T09:15:55;14.40;99.90
12853;DHT22;6495;51.808;7.478;2022-10-31T09:18:24;14.50;99.90
12853;DHT22;6495;51.808;7.478;2022-10-31T09:20:56;14.50;99.90
12853;DHT22;6495;51.808;7.478;2022-10-31T09:23:25;14.50;99.90
12853;DHT22;6495;51.808;7.478;2022-10-31T09:25:54;14.60;99.90
12853;DHT22;6495;51.808;7.478;2022-10-31T09:28:23;14.60;99.90
12853;DHT22;6495;51.808;7.478;2022-10-31T09:30:53;14.60;99.90
12853;DHT22;6495;51.808;7.478;2022-10-31T09:33:21;14.70;99.90
12853;DHT22;6495;51.808;7.478;2022-10-31T09:35:50;14.70;99.90
12853;DHT22;6495;51.808;7.478;2022-10-31T09:38:20;14.70;99.90
12853;DHT22;6495;51.808;7.478;2022-10-31T09:40:55;14.80;99.90
12853;DHT22;6495;51.808;7.478;2022-10-31T09:43:39;14.80;99.90
12853;DHT22;6495;51.808;7.478;2022-10-31T09:46:22;14.90;99.90
12853;DHT22;6495;51.808;7.478;2022-10-31T09:49:28;14.90;99.90
12853;DHT22;6495;51.808;7.478;2022-10-31T09:52:11;15.00;99.90
12853;DHT22;6495;51.808;7.478;2022-10-31T09:54:47;15.00;99.90
12853;DHT22;6495;51.808;7.478;2022-10-31T09:57:24;15.10;99.90
12853;DHT22;6495;51.808;7.478;2022-10-31T09:59:56;15.20;99.90
12853;DHT22;6495;51.808;7.478;2022-10-31T10:02:30;15.20;99.90
12853;DHT22;6495;51.808;7.478;2022-10-31T10:05:09;15.30;99.90
12853;DHT22;6495;51.808;7.478;2022-10-31T10:07:44;15.30;99.90
12853;DHT22;6495;51.808;7.478;2022-10-31T10:10:27;15.40;99.90
12853;DHT22;6495;51.808;7.478;2022-10-31T10:13:22;15.50;99.90
12853;DHT22;6495;51.808;7.478;2022-10-31T10:19:10;15.70;99.90
12853;DHT22;6495;51.808;7.478;2022-10-31T10:21:51;15.80;99.90
12853;DHT22;6495;51.808;7.478;2022-10-31T10:24:33;15.90;99.90
12853;DHT22;6495;51.808;7.478;2022-10-31T10:27:19;15.90;99.90
12853;DHT22;6495;51.808;7.478;2022-10-31T10:29:58;16.00;99.90
12853;DHT22;6495;51.808;7.478;2022-10-31T10:32:37;16.10;99.90
12853;DHT22;6495;51.808;7.478;2022-10-31T10:35:22;16.10;99.90
12853;DHT22;6495;51.808;7.478;2022-10-31T10:38:08;16.20;99.90
12853;DHT22;6495;51.808;7.478;2022-10-31T10:40:43;16.30;99.90
12853;DHT22;6495;51.808;7.478;2022-10-31T10:43:21;16.30;99.90
12853;DHT22;6495;51.808;7.478;2022-10-31T10:46:08;16.40;99.90
12853;DHT22;6495;51.808;7.478;2022-10-31T10:52:01;16.50;99.90
12853;DHT22;6495;51.808;7.478;2022-10-31T10:55:02;16.50;99.90
12853;DHT22;6495;51.808;7.478;2022-10-31T10:57:46;16.60;99.90
12853;DHT22;6495;51.808;7.478;2022-10-31T11:00:25;16.60;99.90
12853;DHT22;6495;51.808;7.478;2022-10-31T11:02:55;16.60;99.90
12853;DHT22;6495;51.808;7.478;2022-10-31T11:05:30;16.70;99.90
12853;DHT22;6495;51.808;7.478;2022-10-31T11:08:03;16.80;99.90
12853;DHT22;6495;51.808;7.478;2022-10-31T11:10:32;16.80;99.90
12853;DHT22;6495;51.808;7.478;2022-10-31T11:13:05;16.90;99.90
12853;DHT22;6495;51.808;7.478;2022-10-31T11:15:53;16.90;99.90
12853;DHT22;6495;51.808;7.478;2022-10-31T11:18:26;17.00;99.90
12853;DHT22;6495;51.808;7.478;2022-10-31T11:20:59;17.00;99.90
12853;DHT22;6495;51.808;7.478;2022-10-31T11:23:29;17.10;99.90
12853;DHT22;6495;51.808;7.478;2022-10-31T11:26:00;17.10;99.90
12853;DHT22;6495;51.808;7.478;2022-10-31T11:28:31;17.20;99.90
12853;DHT22;6495;51.808;7.478;2022-10-31T11:31:06;17.30;99.90
12853;DHT22;6495;51.808;7.478;2022-10-31T11:33:38;17.40;99.90
12853;DHT22;6495;51.808;7.478;2022-10-31T11:36:18;17.40;99.90
12853;DHT22;6495;51.808;7.478;2022-10-31T11:38:50;17.50;99.90
12853;DHT22;6495;51.808;7.478;2022-10-31T11:41:24;17.50;99.90
12853;DHT22;6495;51.808;7.478;2022-10-31T11:43:57;17.60;99.90
12853;DHT22;6495;51.808;7.478;2022-10-31T11:46:35;17.60;99.90
12853;DHT22;6495;51.808;7.478;2022-10-31T11:49:15;17.70;99.90
12853;DHT22;6495;51.808;7.478;2022-10-31T11:51:51;17.70;99.90
12853;DHT22;6495;51.808;7.478;2022-10-31T11:54:25;17.70;99.90
12853;DHT22;6495;51.808;7.478;2022-10-31T11:56:56;17.70;99.90
12853;DHT22;6495;51.808;7.478;2022-10-31T11:59:27;17.70;99.90
12853;DHT22;6495;51.808;7.478;2022-10-31T12:01:58;17.70;99.90
12853;DHT22;6495;51.808;7.478;2022-10-31T12:04:36;17.80;99.90
12853;DHT22;6495;51.808;7.478;2022-10-31T12:07:09;17.80;99.90
12853;DHT22;6495;51.808;7.478;2022-10-31T12:09:38;17.80;99.90
12853;DHT22;6495;51.808;7.478;2022-10-31T12:12:20;17.80;99.90
12853;DHT22;6495;51.808;7.478;2022-10-31T12:18:25;17.80;99.90
12853;DHT22;6495;51.808;7.478;2022-10-31T12:21:15;17.90;99.90
12853;DHT22;6495;51.808;7.478;2022-10-31T12:24:02;17.90;99.90
12853;DHT22;6495;51.808;7.478;2022-10-31T12:26:48;17.90;99.90
12853;DHT22;6495;51.808;7.478;2022-10-31T12:29:46;17.90;99.90
12853;DHT22;6495;51.808;7.478;2022-10-31T12:32:30;17.90;99.90
12853;DHT22;6495;51.808;7.478;2022-10-31T12:35:27;18.00;99.90
12853;DHT22;6495;51.808;7.478;2022-10-31T12:38:36;18.00;99.90
12853;DHT22;6495;51.808;7.478;2022-10-31T12:41:25;18.00;99.90
12853;DHT22;6495;51.808;7.478;2022-10-31T12:44:06;18.10;99.90
12853;DHT22;6495;51.808;7.478;2022-10-31T12:46:55;18.10;99.90
12853;DHT22;6495;51.808;7.478;2022-10-31T12:49:42;18.10;99.90
12853;DHT22;6495;51.808;7.478;2022-10-31T12:52:32;18.20;99.90
12853;DHT22;6495;51.808;7.478;2022-10-31T12:55:23;18.20;99.90
12853;DHT22;6495;51.808;7.478;2022-10-31T12:58:10;18.20;99.90
12853;DHT22;6495;51.808;7.478;2022-10-31T13:00:44;18.20;99.90
12853;DHT22;6495;51.808;7.478;2022-10-31T13:03:24;18.20;99.90
12853;DHT22;6495;51.808;7.478;2022-10-31T13:05:59;18.30;99.90
12853;DHT22;6495;51.808;7.478;2022-10-31T13:08:37;18.30;99.90
12853;DHT22;6495;51.808;7.478;2022-10-31T13:11:11;18.30;99.90
12853;DHT22;6495;51.808;7.478;2022-10-31T13:13:47;18.30;99.90
12853;DHT22;6495;51.808;7.478;2022-10-31T13:16:25;18.30;99.90
12853;DHT22;6495;51.808;7.478;2022-10-31T13:19:02;18.30;99.90
12853;DHT22;6495;51.808;7.478;2022-10-31T13:21:36;18.30;99.90
12853;DHT22;6495;51.808;7.478;2022-10-31T13:24:12;18.30;99.90
12853;DHT22;6495;51.808;7.478;2022-10-31T13:26:44;18.30;99.90
12853;DHT22;6495;51.808;7.478;2022-10-31T13:29:21;18.30;99.90
12853;DHT22;6495;51.808;7.478;2022-10-31T13:31:59;18.30;99.90
12853;DHT22;6495;51.808;7.478;2022-10-31T13:34:31;18.40;99.90
12853;DHT22;6495;51.808;7.478;2022-10-31T13:37:12;18.40;99.90
12853;DHT22;6495;51.808;7.478;2022-10-31T13:39:55;18.40;99.90
12853;DHT22;6495;51.808;7.478;2022-10-31T13:42:52;18.40;99.90
12853;DHT22;6495;51.808;7.478;2022-10-31T13:45:28;18.40;99.90
12853;DHT22;6495;51.808;7.478;2022-10-31T13:47:58;18.40;99.90
12853;DHT22;6495;51.808;7.478;2022-10-31T13:50:29;18.40;99.90
12853;DHT22;6495;51.808;7.478;2022-10-31T13:53:12;18.40;99.90
12853;DHT22;6495;51.808;7.478;2022-10-31T13:55:48;18.40;99.90
12853;DHT22;6495;51.808;7.478;2022-10-31T13:58:22;18.40;99.90
12853;DHT22;6495;51.808;7.478;2022-10-31T14:01:15;18.40;99.90
12853;DHT22;6495;51.808;7.478;2022-10-31T14:03:55;18.40;99.90
12853;DHT22;6495;51.808;7.478;2022-10-31T14:06:54;18.40;99.90
12853;DHT22;6495;51.808;7.478;2022-10-31T14:09:29;18.40;99.90
12853;DHT22;6495;51.808;7.478;2022-10-31T14:12:03;18.50;99.90
12853;DHT22;6495;51.808;7.478;2022-10-31T14:14:43;18.50;99.90
12853;DHT22;6495;51.808;7.478;2022-10-31T14:17:32;18.50;99.90
12853;DHT22;6495;51.808;7.478;2022-10-31T14:20:42;18.50;99.90
12853;DHT22;6495;51.808;7.478;2022-10-31T14:29:23;18.40;99.90
12853;DHT22;6495;51.808;7.478;2022-10-31T14:31:57;18.40;99.90
12853;DHT22;6495;51.808;7.478;2022-10-31T14:34:33;18.40;99.90
12853;DHT22;6495;51.808;7.478;2022-10-31T14:37:14;18.40;99.90
12853;DHT22;6495;51.808;7.478;2022-10-31T14:40:01;18.40;99.90
12853;DHT22;6495;51.808;7.478;2022-10-31T14:42:47;18.40;99.90
12853;DHT22;6495;51.808;7.478;2022-10-31T14:45:29;18.40;99.90
12853;DHT22;6495;51.808;7.478;2022-10-31T14:48:19;18.40;99.90
12853;DHT22;6495;51.808;7.478;2022-10-31T14:51:11;18.40;99.90
12853;DHT22;6495;51.808;7.478;2022-10-31T14:53:46;18.40;99.90
12853;DHT22;6495;51.808;7.478;2022-10-31T14:56:21;18.40;99.90
12853;DHT22;6495;51.808;7.478;2022-10-31T14:58:54;18.40;99.90
12853;DHT22;6495;51.808;7.478;2022-10-31T15:01:27;18.40;99.90
12853;DHT22;6495;51.808;7.478;2022-10-31T15:04:02;18.40;99.90
12853;DHT22;6495;51.808;7.478;2022-10-31T15:06:53;18.40;99.90
12853;DHT22;6495;51.808;7.478;2022-10-31T15:09:29;18.40;99.90
12853;DHT22;6495;51.808;7.478;2022-10-31T15:11:59;18.40;99.90
12853;DHT22;6495;51.808;7.478;2022-10-31T15:14:30;18.40;99.90
12853;DHT22;6495;51.808;7.478;2022-10-31T15:17:01;18.40;99.90
12853;DHT22;6495;51.808;7.478;2022-10-31T15:19:32;18.40;99.90
12853;DHT22;6495;51.808;7.478;2022-10-31T15:22:04;18.40;99.90
12853;DHT22;6495;51.808;7.478;2022-10-31T15:24:34;18.40;99.90
12853;DHT22;6495;51.808;7.478;2022-10-31T15:27:05;18.40;99.90
12853;DHT22;6495;51.808;7.478;2022-10-31T15:29:47;18.40;99.90
12853;DHT22;6495;51.808;7.478;2022-10-31T15:32:20;18.40;99.90
12853;DHT22;6495;51.808;7.478;2022-10-31T15:34:51;18.40;99.90
12853;DHT22;6495;51.808;7.478;2022-10-31T15:37:23;18.40;99.90
12853;DHT22;6495;51.808;7.478;2022-10-31T15:39:53;18.40;99.90
12853;DHT22;6495;51.808;7.478;2022-10-31T15:42:24;18.40;99.90
12853;DHT22;6495;51.808;7.478;2022-10-31T15:45:01;18.40;99.90
12853;DHT22;6495;51.808;7.478;2022-10-31T15:47:33;18.40;99.90
12853;DHT22;6495;51.808;7.478;2022-10-31T15:50:03;18.30;99.90
12853;DHT22;6495;51.808;7.478;2022-10-31T15:52:47;18.30;99.90
12853;DHT22;6495;51.808;7.478;2022-10-31T15:55:20;18.30;99.90
12853;DHT22;6495;51.808;7.478;2022-10-31T15:57:52;18.30;99.90
12853;DHT22;6495;51.808;7.478;2022-10-31T16:00:27;18.20;99.90
12853;DHT22;6495;51.808;7.478;2022-10-31T16:09:22;18.20;99.90
12853;DHT22;6495;51.808;7.478;2022-10-31T16:11:51;18.20;99.90
12853;DHT22;6495;51.808;7.478;2022-10-31T16:14:23;18.10;99.90
12853;DHT22;6495;51.808;7.478;2022-10-31T16:16:55;18.10;99.90
12853;DHT22;6495;51.808;7.478;2022-10-31T16:19:27;18.10;99.90
12853;DHT22;6495;51.808;7.478;2022-10-31T16:22:04;18.10;99.90
12853;DHT22;6495;51.808;7.478;2022-10-31T16:24:43;18.10;99.90
12853;DHT22;6495;51.808;7.478;2022-10-31T16:27:17;18.10;99.90
12853;DHT22;6495;51.808;7.478;2022-10-31T16:29:50;18.00;99.90
12853;DHT22;6495;51.808;7.478;2022-10-31T16:32:26;18.00;99.90
12853;DHT22;6495;51.808;7.478;2022-10-31T16:35:00;18.00;99.90
12853;DHT22;6495;51.808;7.478;2022-10-31T16:37:44;18.00;99.90
12853;DHT22;6495;51.808;7.478;2022-10-31T16:40:14;17.90;99.90
12853;DHT22;6495;51.808;7.478;2022-10-31T16:42:44;17.90;99.90
12853;DHT22;6495;51.808;7.478;2022-10-31T16:45:16;17.90;99.90
12853;DHT22;6495;51.808;7.478;2022-10-31T16:47:47;17.90;99.90
12853;DHT22;6495;51.808;7.478;2022-10-31T16:50:20;17.90;99.90